Terminal Aerodrome Forecast
Issued by NWS Wilmington, NC

Home | Current Version | Previous Version | Text Only | Print | Product List | Glossary On
Versions: 1 2 3 4 5 6 7 8 9 10 11 12 13 14
381
FTUS42 KILM 301754 CCA
TAFMYR
TAF COR
KMYR 301754Z 3018/3118 28007KT P6SM VCTS FEW030CB BKN060
     FM301900 20011G16KT P6SM VCTS SCT025CB BKN045
      TEMPO 3019/3023 VRB15G30KT 3SM TSRA SCT010 BKN025CB OVC050
     FM310200 22006KT P6SM BKN150
     FM310800 23006KT P6SM SCT035 BKN250
     FM311400 23010KT P6SM VCTS FEW025CB BKN050=

USA.gov is the U.S. government's official web portal to all federal, state and local government web resources and services.